sensor_id;sensor_type;location;lat;lon;timestamp;pressure;altitude;pressure_sealevel;temperature;humidity
29359;BME280;16347;53.232;6.556;2022-09-09T00:00:17;100706.69;;;19.95;64.21
29359;BME280;16347;53.232;6.556;2022-09-09T00:02:57;100701.78;;;19.98;63.34
29359;BME280;16347;53.232;6.556;2022-09-09T00:05:53;100703.31;;;19.93;64.11
29359;BME280;16347;53.232;6.556;2022-09-09T00:08:39;100700.16;;;19.90;63.89
29359;BME280;16347;53.232;6.556;2022-09-09T00:11:29;100699.91;;;19.91;63.76
29359;BME280;16347;53.232;6.556;2022-09-09T00:14:23;100702.06;;;19.89;64.01
29359;BME280;16347;53.232;6.556;2022-09-09T00:17:02;100702.59;;;19.73;63.56
29359;BME280;16347;53.232;6.556;2022-09-09T00:19:54;100701.19;;;19.58;64.41
29359;BME280;16347;53.232;6.556;2022-09-09T00:22:31;100692.97;;;19.44;64.43
29359;BME280;16347;53.232;6.556;2022-09-09T00:25:10;100689.75;;;19.54;64.82
29359;BME280;16347;53.232;6.556;2022-09-09T00:27:43;100686.66;;;19.31;64.87
29359;BME280;16347;53.232;6.556;2022-09-09T00:30:17;100687.91;;;19.41;64.97
29359;BME280;16347;53.232;6.556;2022-09-09T00:32:53;100680.50;;;19.35;64.84
29359;BME280;16347;53.232;6.556;2022-09-09T00:35:31;100692.94;;;19.51;64.90
29359;BME280;16347;53.232;6.556;2022-09-09T00:38:10;100689.38;;;19.51;64.74
29359;BME280;16347;53.232;6.556;2022-09-09T00:40:52;100690.03;;;19.46;64.20
29359;BME280;16347;53.232;6.556;2022-09-09T00:43:34;100683.66;;;19.45;64.45
29359;BME280;16347;53.232;6.556;2022-09-09T00:46:26;100680.97;;;19.26;64.96
29359;BME280;16347;53.232;6.556;2022-09-09T00:49:15;100682.53;;;19.09;65.24
29359;BME280;16347;53.232;6.556;2022-09-09T00:54:54;100682.56;;;19.02;65.66
29359;BME280;16347;53.232;6.556;2022-09-09T00:57:30;100668.78;;;19.02;65.66
29359;BME280;16347;53.232;6.556;2022-09-09T01:00:19;100671.75;;;18.94;65.48
29359;BME280;16347;53.232;6.556;2022-09-09T01:03:20;100671.59;;;18.82;65.47
29359;BME280;16347;53.232;6.556;2022-09-09T01:06:01;100660.28;;;18.97;65.49
29359;BME280;16347;53.232;6.556;2022-09-09T01:08:47;100663.91;;;18.98;65.05
29359;BME280;16347;53.232;6.556;2022-09-09T01:11:25;100666.47;;;18.92;65.32
29359;BME280;16347;53.232;6.556;2022-09-09T01:16:56;100661.00;;;18.86;65.08
29359;BME280;16347;53.232;6.556;2022-09-09T01:19:40;100663.25;;;19.02;65.42
29359;BME280;16347;53.232;6.556;2022-09-09T01:22:24;100662.38;;;19.08;64.83
29359;BME280;16347;53.232;6.556;2022-09-09T01:25:26;100660.69;;;19.14;64.35
29359;BME280;16347;53.232;6.556;2022-09-09T01:28:13;100659.41;;;19.10;63.74
29359;BME280;16347;53.232;6.556;2022-09-09T01:30:47;100661.94;;;19.11;63.66
29359;BME280;16347;53.232;6.556;2022-09-09T01:33:23;100656.88;;;19.08;63.43
29359;BME280;16347;53.232;6.556;2022-09-09T01:36:29;100665.13;;;19.08;63.44
29359;BME280;16347;53.232;6.556;2022-09-09T01:39:05;100661.97;;;19.05;63.17
29359;BME280;16347;53.232;6.556;2022-09-09T01:41:47;100654.81;;;18.90;63.50
29359;BME280;16347;53.232;6.556;2022-09-09T01:44:33;100659.88;;;19.00;63.73
29359;BME280;16347;53.232;6.556;2022-09-09T01:47:11;100660.34;;;18.84;63.24
29359;BME280;16347;53.232;6.556;2022-09-09T01:50:12;100661.84;;;18.86;63.72
29359;BME280;16347;53.232;6.556;2022-09-09T01:52:50;100655.91;;;18.83;64.13
29359;BME280;16347;53.232;6.556;2022-09-09T01:55:38;100657.41;;;18.79;64.02
29359;BME280;16347;53.232;6.556;2022-09-09T01:58:28;100662.09;;;18.72;64.33
29359;BME280;16347;53.232;6.556;2022-09-09T02:01:40;100672.28;;;18.58;65.23
29359;BME280;16347;53.232;6.556;2022-09-09T02:04:39;100659.16;;;18.54;65.61
29359;BME280;16347;53.232;6.556;2022-09-09T02:07:33;100661.28;;;18.45;65.39
29359;BME280;16347;53.232;6.556;2022-09-09T02:10:40;100657.06;;;18.42;65.91
29359;BME280;16347;53.232;6.556;2022-09-09T02:13:31;100658.97;;;18.35;65.95
29359;BME280;16347;53.232;6.556;2022-09-09T02:16:21;100658.09;;;18.41;66.12
29359;BME280;16347;53.232;6.556;2022-09-09T02:19:02;100665.31;;;18.36;66.37
29359;BME280;16347;53.232;6.556;2022-09-09T02:22:07;100664.25;;;18.17;66.71
29359;BME280;16347;53.232;6.556;2022-09-09T02:24:44;100667.66;;;18.26;67.16
29359;BME280;16347;53.232;6.556;2022-09-09T02:27:22;100666.16;;;18.17;67.20
29359;BME280;16347;53.232;6.556;2022-09-09T02:29:54;100658.31;;;18.27;67.38
29359;BME280;16347;53.232;6.556;2022-09-09T02:32:41;100648.78;;;18.42;67.13
29359;BME280;16347;53.232;6.556;2022-09-09T02:35:53;100659.81;;;18.03;67.95
29359;BME280;16347;53.232;6.556;2022-09-09T02:38:34;100664.25;;;18.11;67.87
29359;BME280;16347;53.232;6.556;2022-09-09T02:41:09;100662.56;;;18.03;68.13
29359;BME280;16347;53.232;6.556;2022-09-09T02:43:45;100664.25;;;18.11;67.67
29359;BME280;16347;53.232;6.556;2022-09-09T02:46:31;100664.50;;;17.89;68.68
29359;BME280;16347;53.232;6.556;2022-09-09T02:49:09;100659.81;;;17.97;68.70
29359;BME280;16347;53.232;6.556;2022-09-09T02:51:51;100663.41;;;17.97;68.51
29359;BME280;16347;53.232;6.556;2022-09-09T02:54:41;100659.81;;;18.03;68.54
29359;BME280;16347;53.232;6.556;2022-09-09T02:57:23;100666.16;;;17.90;68.68
29359;BME280;16347;53.232;6.556;2022-09-09T03:00:11;100661.31;;;17.92;68.78
29359;BME280;16347;53.232;6.556;2022-09-09T03:03:04;100657.28;;;17.95;68.85
29359;BME280;16347;53.232;6.556;2022-09-09T03:05:40;100669.34;;;17.87;68.56
29359;BME280;16347;53.232;6.556;2022-09-09T03:08:15;100654.75;;;17.93;68.80
29359;BME280;16347;53.232;6.556;2022-09-09T03:10:50;100667.88;;;17.98;68.89
29359;BME280;16347;53.232;6.556;2022-09-09T03:13:21;100658.75;;;18.11;68.40
29359;BME280;16347;53.232;6.556;2022-09-09T03:15:49;100653.69;;;18.08;68.65
29359;BME280;16347;53.232;6.556;2022-09-09T03:18:20;100648.41;;;18.00;68.49
29359;BME280;16347;53.232;6.556;2022-09-09T03:20:50;100654.31;;;18.03;68.46
29359;BME280;16347;53.232;6.556;2022-09-09T03:23:23;100656.44;;;17.94;69.09
29359;BME280;16347;53.232;6.556;2022-09-09T03:25:51;100653.69;;;17.88;69.10
29359;BME280;16347;53.232;6.556;2022-09-09T03:28:29;100660.47;;;17.92;69.10
29359;BME280;16347;53.232;6.556;2022-09-09T03:30:59;100653.69;;;18.01;68.95
29359;BME280;16347;53.232;6.556;2022-09-09T03:33:32;100653.47;;;18.16;68.96
29359;BME280;16347;53.232;6.556;2022-09-09T03:36:01;100655.16;;;18.04;68.68
29359;BME280;16347;53.232;6.556;2022-09-09T03:38:31;100660.25;;;18.07;68.72
29359;BME280;16347;53.232;6.556;2022-09-09T03:41:00;100663.41;;;17.77;69.59
29359;BME280;16347;53.232;6.556;2022-09-09T03:43:29;100659.38;;;17.67;69.96
29359;BME280;16347;53.232;6.556;2022-09-09T03:45:58;100664.88;;;17.67;70.36
29359;BME280;16347;53.232;6.556;2022-09-09T03:48:27;100667.00;;;17.65;70.58
29359;BME280;16347;53.232;6.556;2022-09-09T03:50:56;100658.13;;;17.69;70.45
29359;BME280;16347;53.232;6.556;2022-09-09T03:53:30;100657.72;;;17.85;70.36
29359;BME280;16347;53.232;6.556;2022-09-09T03:55:59;100656.88;;;17.98;69.52
29359;BME280;16347;53.232;6.556;2022-09-09T03:58:28;100660.03;;;18.08;70.11
29359;BME280;16347;53.232;6.556;2022-09-09T04:01:03;100662.78;;;18.15;69.66
29359;BME280;16347;53.232;6.556;2022-09-09T04:03:33;100664.06;;;18.19;69.73
29359;BME280;16347;53.232;6.556;2022-09-09T04:06:02;100664.91;;;18.19;68.98
29359;BME280;16347;53.232;6.556;2022-09-09T04:08:33;100657.72;;;18.05;69.35
29359;BME280;16347;53.232;6.556;2022-09-09T04:11:09;100656.44;;;18.01;69.37
29359;BME280;16347;53.232;6.556;2022-09-09T04:13:46;100658.16;;;17.96;69.83
29359;BME280;16347;53.232;6.556;2022-09-09T04:16:20;100664.25;;;18.11;69.43
29359;BME280;16347;53.232;6.556;2022-09-09T04:18:51;100659.41;;;18.00;69.79
29359;BME280;16347;53.232;6.556;2022-09-09T04:21:25;100665.75;;;17.93;70.12
29359;BME280;16347;53.232;6.556;2022-09-09T04:24:12;100665.97;;;17.99;70.45
29359;BME280;16347;53.232;6.556;2022-09-09T04:27:33;100665.31;;;17.90;70.46
29359;BME280;16347;53.232;6.556;2022-09-09T04:30:14;100659.63;;;17.85;70.24
29359;BME280;16347;53.232;6.556;2022-09-09T04:33:13;100665.75;;;18.00;70.74
29359;BME280;16347;53.232;6.556;2022-09-09T04:35:51;100670.81;;;17.77;70.25
29359;BME280;16347;53.232;6.556;2022-09-09T04:38:35;100677.34;;;17.63;71.61
29359;BME280;16347;53.232;6.556;2022-09-09T04:41:12;100676.75;;;17.93;71.20
29359;BME280;16347;53.232;6.556;2022-09-09T04:43:44;100670.81;;;17.97;70.70
29359;BME280;16347;53.232;6.556;2022-09-09T04:46:18;100672.53;;;18.04;70.30
29359;BME280;16347;53.232;6.556;2022-09-09T04:48:50;100658.34;;;18.07;70.38
29359;BME280;16347;53.232;6.556;2022-09-09T04:51:48;100668.91;;;17.84;70.39
29359;BME280;16347;53.232;6.556;2022-09-09T04:54:23;100668.72;;;17.92;70.83
29359;BME280;16347;53.232;6.556;2022-09-09T04:56:56;100667.00;;;17.84;70.90
29359;BME280;16347;53.232;6.556;2022-09-09T04:59:29;100664.69;;;17.75;71.17
29359;BME280;16347;53.232;6.556;2022-09-09T05:02:04;100663.84;;;17.81;71.33
29359;BME280;16347;53.232;6.556;2022-09-09T05:04:35;100673.38;;;17.91;70.78
29359;BME280;16347;53.232;6.556;2022-09-09T05:07:08;100665.97;;;17.92;70.74
29359;BME280;16347;53.232;6.556;2022-09-09T05:09:41;100670.38;;;17.86;71.10
29359;BME280;16347;53.232;6.556;2022-09-09T05:12:20;100675.06;;;17.79;71.30
29359;BME280;16347;53.232;6.556;2022-09-09T05:14:53;100669.16;;;17.96;71.10
29359;BME280;16347;53.232;6.556;2022-09-09T05:17:28;100675.50;;;18.03;71.30
29359;BME280;16347;53.232;6.556;2022-09-09T05:20:06;100677.38;;;17.82;71.56
29359;BME280;16347;53.232;6.556;2022-09-09T05:22:52;100681.19;;;18.01;71.51
29359;BME280;16347;53.232;6.556;2022-09-09T05:25:31;100677.16;;;17.84;71.27
29359;BME280;16347;53.232;6.556;2022-09-09T05:28:27;100677.16;;;17.71;71.67
29359;BME280;16347;53.232;6.556;2022-09-09T05:31:08;100671.47;;;17.79;72.02
29359;BME280;16347;53.232;6.556;2022-09-09T05:34:02;100673.13;;;17.80;71.52
29359;BME280;16347;53.232;6.556;2022-09-09T05:36:52;100669.97;;;17.83;71.39
29359;BME280;16347;53.232;6.556;2022-09-09T05:39:24;100670.81;;;17.83;71.52
29359;BME280;16347;53.232;6.556;2022-09-09T05:41:57;100672.94;;;17.88;71.16
29359;BME280;16347;53.232;6.556;2022-09-09T05:44:37;100675.50;;;17.96;71.40
29359;BME280;16347;53.232;6.556;2022-09-09T05:47:07;100675.88;;;17.86;71.33
29359;BME280;16347;53.232;6.556;2022-09-09T05:49:45;100692.81;;;17.90;70.93
29359;BME280;16347;53.232;6.556;2022-09-09T05:52:16;100683.09;;;17.94;71.18
29359;BME280;16347;53.232;6.556;2022-09-09T05:54:48;100690.31;;;17.88;71.26
29359;BME280;16347;53.232;6.556;2022-09-09T05:57:20;100684.78;;;17.88;71.03
29359;BME280;16347;53.232;6.556;2022-09-09T06:00:04;100679.72;;;17.92;71.03
29359;BME280;16347;53.232;6.556;2022-09-09T06:02:40;100683.75;;;17.96;70.62
29359;BME280;16347;53.232;6.556;2022-09-09T06:05:14;100683.75;;;18.03;70.90
29359;BME280;16347;53.232;6.556;2022-09-09T06:07:43;100686.28;;;17.84;70.68
29359;BME280;16347;53.232;6.556;2022-09-09T06:10:15;100686.91;;;17.93;70.74
29359;BME280;16347;53.232;6.556;2022-09-09T06:12:51;100686.91;;;17.93;70.48
29359;BME280;16347;53.232;6.556;2022-09-09T06:15:24;100688.41;;;17.89;71.50
29359;BME280;16347;53.232;6.556;2022-09-09T06:17:56;100687.13;;;17.85;71.96
29359;BME280;16347;53.232;6.556;2022-09-09T06:20:29;100690.50;;;18.00;71.64
29359;BME280;16347;53.232;6.556;2022-09-09T06:23:07;100693.25;;;18.00;70.81
29359;BME280;16347;53.232;6.556;2022-09-09T06:25:44;100698.31;;;17.90;70.94
29359;BME280;16347;53.232;6.556;2022-09-09T06:28:16;100694.34;;;17.99;70.58
29359;BME280;16347;53.232;6.556;2022-09-09T06:31:02;100693.91;;;17.89;71.21
29359;BME280;16347;53.232;6.556;2022-09-09T06:33:40;100693.25;;;18.20;71.16
29359;BME280;16347;53.232;6.556;2022-09-09T06:36:15;100687.13;;;18.37;69.09
29359;BME280;16347;53.232;6.556;2022-09-09T06:38:53;100690.94;;;18.17;69.05
29359;BME280;16347;53.232;6.556;2022-09-09T06:41:28;100689.03;;;18.30;69.26
29359;BME280;16347;53.232;6.556;2022-09-09T06:44:28;100688.41;;;18.28;68.54
29359;BME280;16347;53.232;6.556;2022-09-09T06:47:19;100695.16;;;18.39;69.24
29359;BME280;16347;53.232;6.556;2022-09-09T06:49:49;100691.16;;;18.35;69.09
29359;BME280;16347;53.232;6.556;2022-09-09T06:52:23;100688.81;;;18.32;68.25
29359;BME280;16347;53.232;6.556;2022-09-09T06:54:56;100687.75;;;18.39;68.67
29359;BME280;16347;53.232;6.556;2022-09-09T06:57:35;100689.25;;;18.29;68.28
29359;BME280;16347;53.232;6.556;2022-09-09T07:00:22;100687.97;;;18.18;68.69
29359;BME280;16347;53.232;6.556;2022-09-09T07:02:54;100687.53;;;18.34;69.11
29359;BME280;16347;53.232;6.556;2022-09-09T07:05:37;100687.34;;;18.56;68.75
29359;BME280;16347;53.232;6.556;2022-09-09T07:08:26;100687.34;;;18.56;67.51
29359;BME280;16347;53.232;6.556;2022-09-09T07:11:07;100696.88;;;18.53;67.83
29359;BME280;16347;53.232;6.556;2022-09-09T07:13:42;100697.91;;;18.45;67.43
29359;BME280;16347;53.232;6.556;2022-09-09T07:16:22;100692.84;;;18.42;67.35
29359;BME280;16347;53.232;6.556;2022-09-09T07:19:11;100689.00;;;18.37;68.43
29359;BME280;16347;53.232;6.556;2022-09-09T07:21:56;100691.97;;;18.49;67.92
29359;BME280;16347;53.232;6.556;2022-09-09T07:24:26;100695.81;;;18.54;67.88
29359;BME280;16347;53.232;6.556;2022-09-09T07:26:59;100687.34;;;18.42;67.45
29359;BME280;16347;53.232;6.556;2022-09-09T07:29:30;100691.97;;;18.68;68.11
29359;BME280;16347;53.232;6.556;2022-09-09T07:31:59;100690.09;;;18.56;67.62
29359;BME280;16347;53.232;6.556;2022-09-09T07:34:36;100688.16;;;18.69;67.98
29359;BME280;16347;53.232;6.556;2022-09-09T07:37:06;100681.78;;;18.82;67.19
29359;BME280;16347;53.232;6.556;2022-09-09T07:39:36;100687.47;;;18.80;67.03
29359;BME280;16347;53.232;6.556;2022-09-09T07:42:08;100687.09;;;18.64;67.11
29359;BME280;16347;53.232;6.556;2022-09-09T07:44:38;100692.84;;;18.62;67.46
29359;BME280;16347;53.232;6.556;2022-09-09T07:47:12;100689.88;;;18.51;67.69
29359;BME280;16347;53.232;6.556;2022-09-09T07:49:52;100691.13;;;18.61;67.44
29359;BME280;16347;53.232;6.556;2022-09-09T07:52:26;100698.34;;;18.62;67.59
29359;BME280;16347;53.232;6.556;2022-09-09T07:55:00;100690.72;;;18.58;68.12
29359;BME280;16347;53.232;6.556;2022-09-09T07:57:31;100684.59;;;18.56;67.34
29359;BME280;16347;53.232;6.556;2022-09-09T08:00:03;100692.81;;;18.75;67.37
29359;BME280;16347;53.232;6.556;2022-09-09T08:02:39;100692.78;;;18.88;67.04
29359;BME280;16347;53.232;6.556;2022-09-09T08:05:17;100697.81;;;18.98;67.23
29359;BME280;16347;53.232;6.556;2022-09-09T08:07:52;100691.47;;;18.91;67.06
29359;BME280;16347;53.232;6.556;2022-09-09T08:10:21;100692.56;;;18.77;67.03
29359;BME280;16347;53.232;6.556;2022-09-09T08:12:53;100684.47;;;18.95;67.83
29359;BME280;16347;53.232;6.556;2022-09-09T08:15:46;100698.84;;;19.10;66.80
29359;BME280;16347;53.232;6.556;2022-09-09T08:18:20;100689.91;;;19.15;67.45
29359;BME280;16347;53.232;6.556;2022-09-09T08:21:05;100683.91;;;19.31;66.63
29359;BME280;16347;53.232;6.556;2022-09-09T08:23:36;100696.94;;;19.04;66.76
29359;BME280;16347;53.232;6.556;2022-09-09T08:26:11;100702.47;;;19.04;67.23
29359;BME280;16347;53.232;6.556;2022-09-09T08:28:43;100702.09;;;18.87;66.68
29359;BME280;16347;53.232;6.556;2022-09-09T08:31:14;100704.78;;;19.01;67.00
29359;BME280;16347;53.232;6.556;2022-09-09T08:33:45;100705.66;;;18.94;67.18
29359;BME280;16347;53.232;6.556;2022-09-09T08:36:23;100699.56;;;18.86;67.77
29359;BME280;16347;53.232;6.556;2022-09-09T08:38:53;100709.50;;;18.87;67.68
29359;BME280;16347;53.232;6.556;2022-09-09T08:44:28;100711.38;;;19.06;68.00
29359;BME280;16347;53.232;6.556;2022-09-09T08:47:05;100712.78;;;19.22;68.20
29359;BME280;16347;53.232;6.556;2022-09-09T08:49:52;100713.44;;;19.24;68.09
29359;BME280;16347;53.232;6.556;2022-09-09T08:52:30;100709.91;;;19.04;67.62
29359;BME280;16347;53.232;6.556;2022-09-09T08:55:10;100698.34;;;19.26;67.90
29359;BME280;16347;53.232;6.556;2022-09-09T08:57:43;100702.59;;;19.29;67.53
29359;BME280;16347;53.232;6.556;2022-09-09T09:00:14;100698.06;;;19.48;67.48
29359;BME280;16347;53.232;6.556;2022-09-09T09:02:51;100697.84;;;19.49;67.12
29359;BME280;16347;53.232;6.556;2022-09-09T09:05:28;100711.22;;;19.45;67.19
29359;BME280;16347;53.232;6.556;2022-09-09T09:08:09;100717.84;;;19.31;66.97
29359;BME280;16347;53.232;6.556;2022-09-09T09:10:46;100714.50;;;19.23;67.11
29359;BME280;16347;53.232;6.556;2022-09-09T09:13:25;100716.81;;;19.26;67.64
29359;BME280;16347;53.232;6.556;2022-09-09T09:16:02;100727.19;;;19.30;67.95
29359;BME280;16347;53.232;6.556;2022-09-09T09:18:34;100724.94;;;19.59;67.75
29359;BME280;16347;53.232;6.556;2022-09-09T09:21:12;100728.47;;;19.72;66.51
29359;BME280;16347;53.232;6.556;2022-09-09T09:23:48;100725.16;;;19.64;66.31
29359;BME280;16347;53.232;6.556;2022-09-09T09:26:21;100727.47;;;19.67;66.32
29359;BME280;16347;53.232;6.556;2022-09-09T09:28:54;100732.78;;;19.62;66.94
29359;BME280;16347;53.232;6.556;2022-09-09T09:31:25;100727.50;;;19.60;66.71
29359;BME280;16347;53.232;6.556;2022-09-09T09:33:57;100742.13;;;19.61;66.86
29359;BME280;16347;53.232;6.556;2022-09-09T09:36:37;100732.38;;;19.58;67.00
29359;BME280;16347;53.232;6.556;2022-09-09T09:39:23;100731.59;;;19.82;67.43
29359;BME280;16347;53.232;6.556;2022-09-09T09:42:17;100726.88;;;19.89;66.60
29359;BME280;16347;53.232;6.556;2022-09-09T09:44:56;100725.53;;;19.98;66.47
29359;BME280;16347;53.232;6.556;2022-09-09T09:47:37;100729.16;;;19.99;66.24
29359;BME280;16347;53.232;6.556;2022-09-09T09:50:19;100733.78;;;20.05;66.49
29359;BME280;16347;53.232;6.556;2022-09-09T09:52:56;100729.34;;;20.04;66.02
29359;BME280;16347;53.232;6.556;2022-09-09T09:55:32;100733.38;;;20.02;66.26
29359;BME280;16347;53.232;6.556;2022-09-09T09:58:13;100731.31;;;19.97;66.13
29359;BME280;16347;53.232;6.556;2022-09-09T10:00:54;100728.31;;;19.98;65.38
29359;BME280;16347;53.232;6.556;2022-09-09T10:03:31;100736.88;;;19.90;65.69
29359;BME280;16347;53.232;6.556;2022-09-09T10:06:07;100735.97;;;19.96;65.66
29359;BME280;16347;53.232;6.556;2022-09-09T10:08:45;100743.19;;;19.98;65.40
29359;BME280;16347;53.232;6.556;2022-09-09T10:11:30;100733.53;;;20.13;65.46
29359;BME280;16347;53.232;6.556;2022-09-09T10:14:11;100740.94;;;20.13;65.15
29359;BME280;16347;53.232;6.556;2022-09-09T10:17:06;100743.81;;;20.00;64.96
29359;BME280;16347;53.232;6.556;2022-09-09T10:19:59;100740.31;;;19.79;64.26
29359;BME280;16347;53.232;6.556;2022-09-09T10:22:36;100735.22;;;19.83;64.59
29359;BME280;16347;53.232;6.556;2022-09-09T10:25:26;100739.75;;;20.02;64.31
29359;BME280;16347;53.232;6.556;2022-09-09T10:28:15;100745.25;;;20.02;63.98
29359;BME280;16347;53.232;6.556;2022-09-09T10:30:54;100742.31;;;20.04;63.34
29359;BME280;16347;53.232;6.556;2022-09-09T10:33:35;100742.31;;;20.04;64.06
29359;BME280;16347;53.232;6.556;2022-09-09T10:36:21;100750.56;;;20.04;63.60
29359;BME280;16347;53.232;6.556;2022-09-09T10:39:03;100745.75;;;20.24;64.11
29359;BME280;16347;53.232;6.556;2022-09-09T10:41:53;100744.97;;;20.17;63.22
29359;BME280;16347;53.232;6.556;2022-09-09T10:44:44;100755.19;;;20.10;63.50
29359;BME280;16347;53.232;6.556;2022-09-09T10:47:55;100747.88;;;19.97;63.26
29359;BME280;16347;53.232;6.556;2022-09-09T10:50:53;100738.25;;;20.06;62.72
29359;BME280;16347;53.232;6.556;2022-09-09T10:53:52;100748.22;;;20.07;60.99
29359;BME280;16347;53.232;6.556;2022-09-09T10:56:27;100740.16;;;20.06;59.26
29359;BME280;16347;53.232;6.556;2022-09-09T10:59:00;100745.31;;;19.95;60.07
29359;BME280;16347;53.232;6.556;2022-09-09T11:01:38;100741.59;;;20.08;60.57
29359;BME280;16347;53.232;6.556;2022-09-09T11:04:17;100735.69;;;20.05;60.37
29359;BME280;16347;53.232;6.556;2022-09-09T11:06:52;100736.63;;;20.23;60.45
29359;BME280;16347;53.232;6.556;2022-09-09T11:09:27;100729.72;;;20.39;60.71
29359;BME280;16347;53.232;6.556;2022-09-09T11:11:58;100734.47;;;20.57;60.57
29359;BME280;16347;53.232;6.556;2022-09-09T11:14:34;100727.41;;;20.61;60.28
29359;BME280;16347;53.232;6.556;2022-09-09T11:17:11;100736.19;;;20.76;59.73
29359;BME280;16347;53.232;6.556;2022-09-09T11:19:44;100729.94;;;20.62;58.10
29359;BME280;16347;53.232;6.556;2022-09-09T11:22:21;100735.00;;;20.65;57.21
29359;BME280;16347;53.232;6.556;2022-09-09T11:25:01;100745.88;;;20.85;58.62
29359;BME280;16347;53.232;6.556;2022-09-09T11:27:41;100732.81;;;20.92;57.22
29359;BME280;16347;53.232;6.556;2022-09-09T11:30:18;100740.34;;;21.03;56.05
29359;BME280;16347;53.232;6.556;2022-09-09T11:33:28;100729.47;;;21.08;55.79
29359;BME280;16347;53.232;6.556;2022-09-09T11:39:44;100735.94;;;21.20;55.77
29359;BME280;16347;53.232;6.556;2022-09-09T11:42:22;100733.56;;;21.24;56.36
29359;BME280;16347;53.232;6.556;2022-09-09T11:44:54;100721.97;;;21.15;55.10
29359;BME280;16347;53.232;6.556;2022-09-09T11:47:28;100738.03;;;21.25;56.34
29359;BME280;16347;53.232;6.556;2022-09-09T11:50:10;100734.09;;;21.14;56.10
29359;BME280;16347;53.232;6.556;2022-09-09T11:53:16;100729.44;;;20.90;56.35
29359;BME280;16347;53.232;6.556;2022-09-09T11:56:06;100740.78;;;20.82;56.83
29359;BME280;16347;53.232;6.556;2022-09-09T11:58:39;100733.97;;;20.84;57.09
29359;BME280;16347;53.232;6.556;2022-09-09T12:01:25;100724.38;;;20.87;57.66
29359;BME280;16347;53.232;6.556;2022-09-09T12:07:05;100724.41;;;21.05;57.90
29359;BME280;16347;53.232;6.556;2022-09-09T12:09:58;100726.22;;;20.93;57.88
29359;BME280;16347;53.232;6.556;2022-09-09T12:12:31;100716.28;;;21.10;57.30
29359;BME280;16347;53.232;6.556;2022-09-09T12:15:20;100721.31;;;20.95;57.63
29359;BME280;16347;53.232;6.556;2022-09-09T12:17:55;100730.56;;;20.82;57.67
29359;BME280;16347;53.232;6.556;2022-09-09T12:20:35;100729.59;;;20.77;57.24
29359;BME280;16347;53.232;6.556;2022-09-09T12:23:31;100718.28;;;20.78;59.02
29359;BME280;16347;53.232;6.556;2022-09-09T12:26:26;100717.41;;;20.84;57.46
29359;BME280;16347;53.232;6.556;2022-09-09T12:29:06;100727.16;;;21.05;57.45
29359;BME280;16347;53.232;6.556;2022-09-09T12:31:43;100720.41;;;21.01;56.95
29359;BME280;16347;53.232;6.556;2022-09-09T12:34:17;100713.84;;;20.95;56.50
29359;BME280;16347;53.232;6.556;2022-09-09T12:36:55;100717.41;;;20.84;55.95
29359;BME280;16347;53.232;6.556;2022-09-09T12:39:33;100724.13;;;20.88;55.54
29359;BME280;16347;53.232;6.556;2022-09-09T12:42:18;100721.75;;;20.92;56.14
29359;BME280;16347;53.232;6.556;2022-09-09T12:44:55;100719.34;;;20.59;56.65
29359;BME280;16347;53.232;6.556;2022-09-09T12:47:41;100718.47;;;20.83;55.33
29359;BME280;16347;53.232;6.556;2022-09-09T12:50:22;100712.88;;;21.08;55.65
29359;BME280;16347;53.232;6.556;2022-09-09T12:52:54;100711.72;;;21.16;56.31
29359;BME280;16347;53.232;6.556;2022-09-09T12:55:31;100714.03;;;21.19;55.49
29359;BME280;16347;53.232;6.556;2022-09-09T12:58:04;100708.00;;;21.28;55.26
29359;BME280;16347;53.232;6.556;2022-09-09T13:00:35;100704.50;;;21.33;55.74
29359;BME280;16347;53.232;6.556;2022-09-09T13:03:17;100714.72;;;21.32;55.65
29359;BME280;16347;53.232;6.556;2022-09-09T13:05:48;100698.28;;;21.37;55.38
29359;BME280;16347;53.232;6.556;2022-09-09T13:08:18;100698.47;;;21.54;55.18
29359;BME280;16347;53.232;6.556;2022-09-09T13:10:54;100685.88;;;21.58;54.55
29359;BME280;16347;53.232;6.556;2022-09-09T13:13:35;100685.47;;;21.84;54.43
29359;BME280;16347;53.232;6.556;2022-09-09T13:16:06;100687.16;;;22.15;53.40
29359;BME280;16347;53.232;6.556;2022-09-09T13:18:40;100683.66;;;22.20;51.98
29359;BME280;16347;53.232;6.556;2022-09-09T13:21:16;100675.47;;;22.36;52.63
29359;BME280;16347;53.232;6.556;2022-09-09T13:24:27;100667.06;;;22.31;52.72
29359;BME280;16347;53.232;6.556;2022-09-09T13:27:24;100672.34;;;22.21;52.33
29359;BME280;16347;53.232;6.556;2022-09-09T13:29:56;100667.41;;;22.23;52.17
29359;BME280;16347;53.232;6.556;2022-09-09T13:32:27;100673.28;;;22.04;51.90
29359;BME280;16347;53.232;6.556;2022-09-09T13:35:00;100668.00;;;22.02;52.47
29359;BME280;16347;53.232;6.556;2022-09-09T13:37:33;100673.53;;;22.02;53.13
29359;BME280;16347;53.232;6.556;2022-09-09T13:40:14;100680.47;;;21.63;52.73
29359;BME280;16347;53.232;6.556;2022-09-09T13:42:51;100673.28;;;21.74;53.34
29359;BME280;16347;53.232;6.556;2022-09-09T13:45:24;100671.25;;;21.81;53.46
29359;BME280;16347;53.232;6.556;2022-09-09T13:47:55;100673.94;;;21.87;53.39
29359;BME280;16347;53.232;6.556;2022-09-09T13:50:26;100673.09;;;21.87;53.79
29359;BME280;16347;53.232;6.556;2022-09-09T13:52:57;100670.69;;;21.79;53.52
29359;BME280;16347;53.232;6.556;2022-09-09T13:55:29;100677.75;;;21.75;53.75
29359;BME280;16347;53.232;6.556;2022-09-09T13:58:03;100670.25;;;21.64;53.75
29359;BME280;16347;53.232;6.556;2022-09-09T14:00:34;100671.19;;;21.58;53.46
29359;BME280;16347;53.232;6.556;2022-09-09T14:03:03;100668.56;;;21.63;54.04
29359;BME280;16347;53.232;6.556;2022-09-09T14:05:33;100670.53;;;21.74;53.91
29359;BME280;16347;53.232;6.556;2022-09-09T14:08:05;100672.41;;;21.91;53.27